Time;durP1;ratioP1;P1;durP2;ratioP2;P2;SDS_P1;SDS_P2;PMS_P1;PMS_P2;Temp;Humidity;BMP_temperature;BMP_pressure;BME280_temperature;BME280_humidity;BME280_pressure;Samples;Min_cycle;Max_cycle;Signal;HPM_P1;HPM_P2
2024/04/09 00:00:02;;;;;;;13.07;9.98;;;18.30;99.90;;;;;;6215959;23;20007;-76
2024/04/09 00:02:27;;;;;;;15.77;10.40;;;18.20;99.90;;;;;;6216275;23;20005;-76
2024/04/09 00:04:54;;;;;;;15.15;10.20;;;18.20;99.90;;;;;;6212989;23;20043;-76
2024/04/09 00:07:21;;;;;;;12.60;9.77;;;18.20;99.90;;;;;;6213099;23;20144;-77
2024/04/09 00:09:51;;;;;;;16.63;10.55;;;18.20;99.90;;;;;;6214899;23;20004;-76
2024/04/09 00:12:21;;;;;;;14.23;9.88;;;18.20;99.90;;;;;;6215801;23;20035;-76
2024/04/09 00:14:48;;;;;;;15.02;10.10;;;18.20;99.90;;;;;;6216073;23;20380;-76
2024/04/09 00:17:25;;;;;;;12.35;10.02;;;18.20;99.90;;;;;;6216277;23;20382;-77
2024/04/09 00:19:51;;;;;;;13.85;9.10;;;18.10;99.90;;;;;;6216096;23;20082;-76
2024/04/09 00:22:17;;;;;;;15.40;10.00;;;18.10;99.90;;;;;;6215751;23;20054;-76
2024/04/09 00:24:43;;;;;;;14.63;8.63;;;18.10;99.90;;;;;;6215824;23;20107;-76
2024/04/09 00:27:09;;;;;;;11.75;9.05;;;18.10;99.90;;;;;;6215758;23;20028;-76
2024/04/09 00:29:34;;;;;;;14.38;10.30;;;18.10;99.90;;;;;;6215636;23;20496;-77
2024/04/09 00:32:01;;;;;;;12.73;9.60;;;18.00;99.90;;;;;;6215962;23;20027;-76
2024/04/09 00:34:27;;;;;;;13.48;9.63;;;18.00;99.90;;;;;;6215653;23;19996;-77
2024/04/09 00:36:53;;;;;;;12.88;9.35;;;18.00;99.90;;;;;;6215869;23;20378;-75
2024/04/09 00:39:23;;;;;;;15.88;10.45;;;18.00;99.90;;;;;;6215861;23;20362;-77
2024/04/09 00:41:49;;;;;;;16.35;10.20;;;18.00;99.90;;;;;;6216060;23;20005;-76
2024/04/09 00:44:15;;;;;;;11.35;9.43;;;17.90;99.90;;;;;;6215802;23;20335;-73
2024/04/09 00:46:42;;;;;;;17.08;8.45;;;17.90;99.90;;;;;;6216035;23;20012;-76
2024/04/09 00:49:10;;;;;;;13.73;8.30;;;17.90;99.90;;;;;;6215606;23;20024;-75
2024/04/09 00:51:39;;;;;;;14.30;7.45;;;17.90;99.90;;;;;;6215975;23;20331;-73
2024/04/09 00:54:05;;;;;;;14.30;6.93;;;17.90;99.90;;;;;;6215690;23;20450;-76
2024/04/09 00:56:33;;;;;;;10.20;6.78;;;17.90;99.90;;;;;;6215451;23;20004;-75
2024/04/09 00:58:59;;;;;;;11.93;6.55;;;17.80;99.90;;;;;;6212190;23;20078;-75
2024/04/09 01:01:26;;;;;;;12.00;6.68;;;17.70;99.90;;;;;;6212078;23;20447;-74
2024/04/09 01:03:52;;;;;;;11.65;6.03;;;17.70;99.90;;;;;;6212764;23;20075;-76
2024/04/09 01:06:18;;;;;;;9.85;6.43;;;17.70;99.90;;;;;;6215343;23;20009;-75
2024/04/09 01:08:44;;;;;;;9.18;6.35;;;17.70;99.90;;;;;;6215640;23;20378;-74
2024/04/09 01:11:10;;;;;;;8.55;6.47;;;17.60;99.90;;;;;;6215634;23;20004;-76
2024/04/09 01:13:39;;;;;;;12.30;7.07;;;17.60;99.90;;;;;;6215001;23;20047;-75
2024/04/09 01:16:05;;;;;;;10.73;6.32;;;17.50;99.90;;;;;;6215840;23;20463;-76
2024/04/09 01:18:31;;;;;;;14.50;7.18;;;17.50;99.90;;;;;;6215448;23;20074;-76
2024/04/09 01:20:57;;;;;;;10.40;6.35;;;17.50;99.90;;;;;;6215594;23;20482;-77
2024/04/09 01:23:23;;;;;;;10.30;6.28;;;17.40;99.90;;;;;;6215391;23;20027;-76
2024/04/09 01:25:48;;;;;;;10.40;6.60;;;17.40;99.90;;;;;;6215139;23;20015;-76
2024/04/09 01:28:14;;;;;;;11.93;6.43;;;17.40;99.90;;;;;;6215016;23;20043;-76
2024/04/09 01:30:40;;;;;;;8.70;6.60;;;17.30;99.90;;;;;;6214671;23;20032;-76
2024/04/09 01:33:06;;;;;;;10.45;6.65;;;17.40;99.90;;;;;;6215365;23;20004;-75
2024/04/09 01:35:32;;;;;;;12.18;6.88;;;17.30;99.90;;;;;;6215031;23;20030;-77
2024/04/09 01:37:58;;;;;;;9.07;6.60;;;17.30;99.90;;;;;;6215353;23;20323;-77
2024/04/09 01:40:24;;;;;;;8.77;6.03;;;17.30;99.90;;;;;;6215249;23;20059;-77
2024/04/09 01:42:50;;;;;;;10.02;6.53;;;17.30;99.90;;;;;;6215233;23;20031;-75
2024/04/09 01:45:15;;;;;;;12.05;6.63;;;17.30;99.90;;;;;;6215160;23;20012;-76
2024/04/09 01:47:41;;;;;;;11.57;6.53;;;17.30;99.90;;;;;;6215454;23;20000;-76
2024/04/09 01:50:10;;;;;;;16.95;5.85;;;17.30;99.90;;;;;;6215514;23;20008;-75
2024/04/09 01:52:36;;;;;;;9.38;6.43;;;17.20;99.90;;;;;;6215191;23;20005;-77
2024/04/09 01:55:05;;;;;;;9.30;6.57;;;17.20;99.90;;;;;;6214955;23;20019;-77
2024/04/09 01:57:31;;;;;;;9.50;6.35;;;17.20;99.90;;;;;;6215254;23;20334;-77
2024/04/09 01:59:57;;;;;;;13.32;5.78;;;17.10;99.90;;;;;;6215424;23;20087;-76
2024/04/09 02:02:23;;;;;;;11.70;6.60;;;17.10;99.90;;;;;;6215154;23;20039;-77
2024/04/09 02:04:49;;;;;;;14.15;6.47;;;17.10;99.90;;;;;;6214783;23;20040;-77
2024/04/09 02:07:15;;;;;;;10.30;6.10;;;17.00;99.90;;;;;;6215096;23;20004;-74
2024/04/09 02:09:40;;;;;;;9.00;6.03;;;17.00;99.90;;;;;;6188621;23;20043;-76
2024/04/09 02:12:09;;;;;;;12.30;6.22;;;17.00;99.90;;;;;;6215112;23;20001;-77
2024/04/09 02:14:37;;;;;;;10.63;5.40;;;17.00;99.90;;;;;;6214643;23;20009;-76
2024/04/09 02:17:03;;;;;;;10.95;5.70;;;17.00;99.90;;;;;;6214729;23;20000;-76
2024/04/09 02:19:29;;;;;;;6.55;5.28;;;16.90;99.90;;;;;;6214889;23;20011;-75
2024/04/09 02:21:56;;;;;;;11.98;5.50;;;16.90;99.90;;;;;;6214870;23;20001;-75
2024/04/09 02:24:22;;;;;;;17.02;6.07;;;16.90;99.90;;;;;;6214696;23;20055;-75
2024/04/09 02:26:47;;;;;;;10.82;5.63;;;16.90;99.90;;;;;;6214678;23;20013;-77
2024/04/09 02:29:14;;;;;;;13.27;5.93;;;16.90;99.90;;;;;;6215135;23;20001;-76
2024/04/09 02:31:40;;;;;;;11.50;5.90;;;16.80;99.90;;;;;;6214938;23;20015;-75
2024/04/09 02:34:06;;;;;;;9.68;5.45;;;16.80;99.90;;;;;;6214513;23;20379;-76
2024/04/09 02:36:31;;;;;;;6.70;5.07;;;16.80;99.90;;;;;;6214776;23;20000;-76
2024/04/09 02:38:57;;;;;;;9.95;5.22;;;16.80;99.90;;;;;;6214858;23;20075;-76
2024/04/09 02:41:23;;;;;;;9.98;5.30;;;16.80;99.90;;;;;;6215626;23;20352;-77
2024/04/09 02:43:48;;;;;;;9.55;5.70;;;16.80;99.90;;;;;;6217233;23;20004;-76
2024/04/09 02:46:14;;;;;;;9.35;5.70;;;16.70;99.90;;;;;;6216741;23;20020;-76
2024/04/09 02:48:40;;;;;;;11.27;5.43;;;16.70;99.90;;;;;;6216909;23;20008;-77
2024/04/09 02:51:06;;;;;;;13.73;5.68;;;16.70;99.90;;;;;;6216811;23;20008;-76
2024/04/09 02:53:35;;;;;;;8.13;5.45;;;16.60;99.90;;;;;;6216677;23;20005;-75
2024/04/09 02:56:04;;;;;;;7.90;5.20;;;16.70;99.90;;;;;;6216873;23;20005;-76
2024/04/09 02:58:31;;;;;;;8.68;5.80;;;16.60;99.90;;;;;;6216452;23;20439;-76
2024/04/09 03:01:07;;;;;;;9.45;5.82;;;16.60;99.90;;;;;;6217097;23;20319;-76
2024/04/09 03:03:33;;;;;;;8.07;5.25;;;16.60;99.90;;;;;;6216767;23;20546;-76
2024/04/09 03:06:25;;;;;;;9.98;5.97;;;16.50;99.90;;;;;;6216475;23;20096;-76
2024/04/09 03:08:50;;;;;;;8.87;5.57;;;16.50;99.90;;;;;;6210132;23;20076;-76
2024/04/09 03:11:18;;;;;;;10.35;5.30;;;16.50;99.90;;;;;;6216825;23;20102;-74
2024/04/09 03:13:46;;;;;;;8.25;5.15;;;16.50;99.90;;;;;;6216894;23;19996;-76
2024/04/09 03:16:16;;;;;;;7.47;5.45;;;16.40;99.90;;;;;;6216725;23;20374;-74
2024/04/09 03:18:42;;;;;;;11.82;5.40;;;16.50;99.90;;;;;;6216707;23;20358;-76
2024/04/09 03:21:09;;;;;;;9.77;5.57;;;16.40;99.90;;;;;;6216550;23;20446;-76
2024/04/09 03:23:35;;;;;;;6.68;4.97;;;16.40;99.90;;;;;;6216482;23;20009;-75
2024/04/09 03:26:01;;;;;;;10.68;5.65;;;16.50;99.90;;;;;;6216175;23;20019;-76
2024/04/09 03:28:27;;;;;;;9.02;5.57;;;16.40;99.90;;;;;;6216814;23;20051;-76
2024/04/09 03:30:59;;;;;;;10.52;5.38;;;16.50;99.90;;;;;;6216670;23;20050;-72
2024/04/09 03:33:26;;;;;;;14.88;5.30;;;16.50;99.90;;;;;;6216636;23;20024;-76
2024/04/09 03:35:52;;;;;;;9.52;5.50;;;16.40;99.90;;;;;;6215889;23;20066;-75
2024/04/09 03:38:18;;;;;;;12.40;6.10;;;16.40;99.90;;;;;;6215788;23;20020;-77
2024/04/09 03:40:54;;;;;;;9.77;5.55;;;16.40;99.90;;;;;;6215964;23;20328;-76
2024/04/09 03:43:20;;;;;;;15.25;5.50;;;16.30;99.90;;;;;;6216225;23;20024;-75
2024/04/09 03:46:04;;;;;;;12.15;5.85;;;16.40;99.90;;;;;;6215750;23;20023;-76
2024/04/09 03:48:30;;;;;;;8.52;5.53;;;16.30;99.90;;;;;;6216091;23;20047;-75
2024/04/09 03:50:57;;;;;;;10.25;5.45;;;16.30;99.90;;;;;;6216388;23;20439;-75
2024/04/09 03:53:23;;;;;;;10.93;5.68;;;16.30;99.90;;;;;;6215977;23;19996;-76
2024/04/09 03:56:00;;;;;;;15.20;6.78;;;16.30;99.90;;;;;;6216431;23;20074;-76
2024/04/09 03:58:29;;;;;;;13.90;6.15;;;16.30;99.90;;;;;;6216232;23;19997;-76
2024/04/09 04:00:59;;;;;;;11.30;5.90;;;16.20;99.90;;;;;;6216795;23;20379;-76
2024/04/09 04:03:26;;;;;;;17.35;5.88;;;16.30;99.90;;;;;;6216222;23;20035;-76
2024/04/09 04:05:53;;;;;;;20.33;6.22;;;16.20;99.90;;;;;;6216105;23;20052;-76
2024/04/09 04:08:20;;;;;;;12.90;6.00;;;16.20;99.90;;;;;;6216076;23;20032;-76
2024/04/09 04:10:56;;;;;;;18.52;6.50;;;16.20;99.90;;;;;;6215957;23;20020;-72
2024/04/09 04:13:24;;;;;;;20.52;6.55;;;16.20;99.90;;;;;;6216945;23;20008;-77
2024/04/09 04:16:18;;;;;;;17.05;6.38;;;16.20;99.90;;;;;;6216535;23;20029;-76
2024/04/09 04:18:47;;;;;;;20.23;6.00;;;16.10;99.90;;;;;;6210624;23;20005;-75
2024/04/09 04:21:18;;;;;;;16.98;7.22;;;16.10;99.90;;;;;;6215758;23;20037;-76
2024/04/09 04:23:46;;;;;;;19.00;6.60;;;16.00;99.90;;;;;;6216450;23;20004;-75
2024/04/09 04:26:22;;;;;;;16.65;6.03;;;16.00;99.90;;;;;;6215908;23;20039;-76
2024/04/09 04:28:50;;;;;;;20.52;6.47;;;15.90;99.90;;;;;;6215488;23;20071;-76
2024/04/09 04:31:20;;;;;;;18.52;6.90;;;15.90;99.90;;;;;;6215459;23;20323;-77
2024/04/09 04:33:47;;;;;;;22.40;7.10;;;15.90;99.90;;;;;;6215840;23;19997;-77
2024/04/09 04:36:15;;;;;;;25.75;8.15;;;15.90;99.90;;;;;;6215902;23;20005;-77
2024/04/09 04:38:42;;;;;;;19.08;6.63;;;15.90;99.90;;;;;;6215279;23;20024;-76
2024/04/09 04:41:08;;;;;;;22.67;6.88;;;15.90;99.90;;;;;;6216029;23;20070;-77
2024/04/09 04:43:36;;;;;;;21.85;7.22;;;15.90;99.90;;;;;;6215806;23;20028;-77
2024/04/09 04:46:03;;;;;;;26.10;7.40;;;15.90;99.90;;;;;;6215477;23;20058;-77
2024/04/09 04:48:29;;;;;;;23.85;7.30;;;15.90;99.90;;;;;;6215664;23;20004;-76
2024/04/09 04:50:56;;;;;;;19.52;7.00;;;15.90;99.90;;;;;;6215533;23;20009;-75
2024/04/09 04:53:22;;;;;;;17.33;7.30;;;15.90;99.90;;;;;;6215437;23;20431;-76
2024/04/09 04:55:49;;;;;;;22.25;7.22;;;15.90;99.90;;;;;;6215274;23;20022;-77
2024/04/09 04:58:16;;;;;;;14.75;6.50;;;15.90;99.90;;;;;;6215415;23;20008;-76
2024/04/09 05:00:41;;;;;;;22.23;7.90;;;15.90;99.90;;;;;;6214550;23;20008;-78
2024/04/09 05:03:08;;;;;;;23.38;6.82;;;15.90;99.90;;;;;;6216042;23;20012;-75
2024/04/09 05:05:34;;;;;;;15.43;6.72;;;15.90;99.90;;;;;;6215022;23;20091;-76
2024/04/09 05:08:00;;;;;;;15.98;5.80;;;15.90;99.90;;;;;;6215709;23;20028;-75
2024/04/09 05:10:26;;;;;;;14.57;5.78;;;15.90;99.90;;;;;;6215998;23;20396;-76
2024/04/09 05:12:53;;;;;;;13.65;6.05;;;15.90;99.90;;;;;;6215709;23;20012;-76
2024/04/09 05:15:19;;;;;;;11.15;4.97;;;15.90;99.90;;;;;;6215388;23;20398;-76
2024/04/09 05:17:46;;;;;;;11.23;6.45;;;15.90;99.90;;;;;;6215535;23;20004;-76
2024/04/09 05:20:14;;;;;;;21.88;7.40;;;15.90;99.90;;;;;;6215993;23;20005;-77
2024/04/09 05:22:47;;;;;;;48.85;8.60;;;15.90;99.90;;;;;;6215303;23;19996;-77
2024/04/09 05:25:15;;;;;;;52.25;7.97;;;15.90;99.90;;;;;;6215060;23;20013;-75
2024/04/09 05:27:41;;;;;;;39.40;7.10;;;15.90;99.90;;;;;;6217037;23;19997;-77
2024/04/09 05:30:10;;;;;;;48.13;8.20;;;16.00;99.90;;;;;;6215218;23;20001;-76
2024/04/09 05:32:41;;;;;;;37.13;7.13;;;16.00;99.90;;;;;;6215564;23;20097;-77
2024/04/09 05:35:08;;;;;;;48.33;7.25;;;16.00;99.90;;;;;;6215262;23;20005;-75
2024/04/09 05:37:35;;;;;;;23.52;6.40;;;16.00;99.90;;;;;;6215756;23;20024;-76
2024/04/09 05:40:00;;;;;;;16.00;5.30;;;16.00;99.90;;;;;;6215064;23;20064;-75
2024/04/09 05:42:26;;;;;;;11.70;6.00;;;16.00;99.90;;;;;;6214860;23;20003;-74
2024/04/09 05:44:52;;;;;;;10.60;5.93;;;16.10;99.90;;;;;;6215040;23;20012;-76
2024/04/09 05:47:18;;;;;;;14.98;6.43;;;16.10;99.90;;;;;;6215297;23;20371;-76
2024/04/09 05:49:45;;;;;;;10.07;6.15;;;16.10;99.90;;;;;;6215228;23;20004;-75
2024/04/09 05:52:11;;;;;;;17.30;6.45;;;16.10;99.90;;;;;;6215302;23;20005;-76
2024/04/09 05:54:43;;;;;;;13.02;6.70;;;16.10;99.90;;;;;;6214955;23;20379;-76
2024/04/09 05:57:09;;;;;;;26.67;6.68;;;16.10;99.90;;;;;;6214990;23;20423;-73
2024/04/09 06:27:58;;;;;;;18.38;6.45;;;16.50;99.90;;;;;;5471185;25;20438;-71
2024/04/09 06:30:24;;;;;;;18.60;6.93;;;16.50;99.90;;;;;;5471188;26;20010;-70
2024/04/09 06:32:50;;;;;;;22.73;6.35;;;16.50;99.90;;;;;;5470995;26;19999;-69
2024/04/09 06:35:16;;;;;;;44.38;8.38;;;16.50;99.90;;;;;;5471113;26;20412;-70
2024/04/09 06:37:42;;;;;;;20.55;7.15;;;16.50;99.90;;;;;;5471634;26;20422;-69
2024/04/09 06:40:08;;;;;;;19.10;7.03;;;16.50;99.90;;;;;;5439735;26;20348;-70
2024/04/09 06:42:34;;;;;;;11.02;6.70;;;16.50;99.90;;;;;;5471977;26;19999;-68
2024/04/09 06:45:03;;;;;;;13.13;6.90;;;16.50;99.90;;;;;;5471475;26;20001;-68
2024/04/09 06:47:40;;;;;;;16.65;8.38;;;16.50;99.90;;;;;;5440150;26;20319;-68
2024/04/09 06:50:54;;;;;;;20.52;8.40;;;16.60;99.90;;;;;;5469709;26;19998;-69
2024/04/09 06:54:13;;;;;;;10.20;7.20;;;16.60;99.90;;;;;;5439284;26;20054;-68
2024/04/09 06:57:47;;;;;;;14.57;6.72;;;16.60;99.90;;;;;;5471917;26;20002;-69
2024/04/09 07:04:21;;;;;;;14.38;5.82;;;16.70;99.90;;;;;;5471982;26;19932;-68
2024/04/09 07:10:31;;;;;;;15.43;6.85;;;16.70;99.90;;;;;;5360605;26;20492;-70
2024/04/09 07:13:03;;;;;;;12.98;6.47;;;16.70;99.90;;;;;;5458821;26;20006;-70
2024/04/09 07:15:32;;;;;;;14.98;6.55;;;16.80;99.90;;;;;;5470714;26;20031;-69
2024/04/09 07:17:58;;;;;;;16.50;6.40;;;16.80;99.90;;;;;;5470811;26;20479;-69
2024/04/09 07:20:24;;;;;;;19.35;6.78;;;16.70;99.90;;;;;;5471371;26;20030;-68
2024/04/09 07:22:50;;;;;;;25.30;7.25;;;16.80;99.90;;;;;;5470803;26;20010;-69
2024/04/09 07:25:16;;;;;;;32.15;6.38;;;16.80;99.90;;;;;;5470879;26;20006;-68
2024/04/09 07:27:43;;;;;;;38.35;7.80;;;16.90;99.90;;;;;;5470864;26;20462;-69
2024/04/09 07:30:10;;;;;;;21.95;6.70;;;16.90;99.90;;;;;;5470246;26;20014;-68
2024/04/09 07:32:36;;;;;;;27.38;7.30;;;17.00;99.90;;;;;;5469801;26;20071;-69
2024/04/09 07:35:03;;;;;;;22.15;6.40;;;17.10;99.90;;;;;;5468527;26;20014;-68
2024/04/09 07:37:29;;;;;;;23.90;5.60;;;17.10;99.90;;;;;;5462775;26;20006;-69
2024/04/09 07:39:55;;;;;;;13.98;6.22;;;17.20;99.90;;;;;;5452299;26;20645;-70
2024/04/09 07:42:21;;;;;;;14.48;5.10;;;17.20;99.90;;;;;;5452317;26;20043;-69
2024/04/09 07:44:47;;;;;;;18.33;5.20;;;17.20;99.90;;;;;;5420641;26;20006;-68
2024/04/09 07:47:14;;;;;;;17.27;6.90;;;17.30;99.90;;;;;;5452256;26;20076;-69
2024/04/09 07:49:40;;;;;;;13.88;5.03;;;17.30;99.90;;;;;;5452755;26;20397;-69
2024/04/09 07:52:06;;;;;;;18.83;5.40;;;17.40;99.90;;;;;;5453119;26;20011;-68
2024/04/09 07:54:32;;;;;;;11.07;4.80;;;17.40;99.90;;;;;;5452995;26;20051;-69
2024/04/09 07:56:58;;;;;;;18.25;4.90;;;17.50;99.90;;;;;;5453376;26;20150;-69
2024/04/09 07:59:24;;;;;;;18.35;5.63;;;17.50;99.90;;;;;;5453675;26;20014;-68
2024/04/09 08:01:51;;;;;;;9.32;4.60;;;17.60;99.90;;;;;;5454186;26;20442;-68
2024/04/09 08:04:17;;;;;;;16.73;5.50;;;17.60;99.90;;;;;;5454179;26;20010;-68
2024/04/09 08:06:43;;;;;;;22.88;5.40;;;17.60;99.90;;;;;;5454602;26;20031;-69
2024/04/09 08:09:11;;;;;;;11.90;4.35;;;17.70;99.90;;;;;;5423164;26;20067;-68
2024/04/09 08:11:47;;;;;;;20.67;5.03;;;17.70;99.90;;;;;;5455093;26;20003;-68
2024/04/09 08:14:13;;;;;;;12.75;4.22;;;17.70;99.90;;;;;;5422622;26;20002;-68
2024/04/09 08:16:39;;;;;;;10.73;4.28;;;17.80;99.90;;;;;;5454604;26;20102;-69
2024/04/09 08:19:05;;;;;;;11.77;4.60;;;17.80;99.90;;;;;;5454561;26;20343;-68
2024/04/09 08:21:31;;;;;;;16.50;4.60;;;17.90;99.90;;;;;;5455273;26;20330;-68
2024/04/09 08:23:57;;;;;;;20.20;5.28;;;17.90;99.90;;;;;;5454626;26;20010;-69
2024/04/09 08:26:23;;;;;;;12.82;4.43;;;18.00;99.90;;;;;;5454231;26;19999;-68
2024/04/09 08:28:53;;;;;;;21.55;4.13;;;18.00;99.90;;;;;;5454990;26;20355;-68
2024/04/09 08:31:37;;;;;;;17.33;4.20;;;18.00;99.90;;;;;;5454726;26;20342;-68
2024/04/09 08:34:19;;;;;;;15.80;5.05;;;18.10;99.90;;;;;;5453079;26;20342;-68
2024/04/09 08:37:26;;;;;;;14.90;4.00;;;18.10;99.90;;;;;;5453915;26;20009;-68
2024/04/09 08:40:45;;;;;;;11.25;3.60;;;18.20;99.90;;;;;;5332742;26;19999;-68
2024/04/09 08:44:04;;;;;;;8.95;3.28;;;18.30;99.90;;;;;;5398720;26;20462;-68
2024/04/09 08:47:30;;;;;;;9.55;3.22;;;18.30;99.90;;;;;;5225637;27;20029;-69
2024/04/09 08:50:44;;;;;;;6.45;3.25;;;18.40;99.90;;;;;;5173746;27;20001;-68
2024/04/09 08:53:51;;;;;;;8.70;2.75;;;18.50;99.90;;;;;;5072248;27;20017;-68
2024/04/09 08:56:21;;;;;;;8.05;2.75;;;18.50;99.90;;;;;;5003959;28;20079;-69
2024/04/09 08:58:47;;;;;;;8.25;2.70;;;18.60;99.90;;;;;;5080135;28;20345;-69
2024/04/09 09:01:28;;;;;;;8.43;2.90;;;18.60;99.90;;;;;;5156211;27;20074;-68
2024/04/09 09:03:54;;;;;;;4.45;2.38;;;18.70;99.90;;;;;;5296163;26;20006;-68
2024/04/09 09:06:20;;;;;;;9.25;3.15;;;18.70;99.90;;;;;;5418469;26;20011;-69
2024/04/09 09:08:45;;;;;;;7.45;2.58;;;18.80;99.90;;;;;;5418066;26;20447;-69
2024/04/09 09:11:21;;;;;;;10.00;2.03;;;18.80;99.90;;;;;;5417675;26;20455;-68
2024/04/09 09:13:47;;;;;;;6.25;2.42;;;18.90;99.90;;;;;;5417867;26;20002;-69
2024/04/09 09:16:13;;;;;;;12.35;2.88;;;18.90;99.90;;;;;;5417187;26;19999;-68
2024/04/09 09:18:39;;;;;;;7.25;1.73;;;19.00;99.60;;;;;;5417480;26;20007;-69
2024/04/09 09:21:05;;;;;;;5.00;1.85;;;19.00;97.90;;;;;;5417698;26;20000;-68
2024/04/09 09:23:32;;;;;;;8.05;2.00;;;19.00;98.60;;;;;;5417763;26;20011;-69
2024/04/09 09:25:58;;;;;;;6.13;1.80;;;19.10;98.20;;;;;;5417605;26;20448;-68
2024/04/09 09:28:27;;;;;;;4.32;1.70;;;19.10;98.10;;;;;;5417748;26;20010;-69
2024/04/09 09:30:56;;;;;;;3.90;1.88;;;19.10;98.00;;;;;;5417697;26;20463;-69
2024/04/09 09:33:26;;;;;;;7.95;2.22;;;19.20;97.50;;;;;;5417649;26;20478;-70
2024/04/09 09:35:53;;;;;;;6.85;2.00;;;19.20;97.70;;;;;;5417493;26;20324;-74
2024/04/09 09:38:20;;;;;;;3.47;1.77;;;19.30;97.70;;;;;;5417597;26;20451;-69
2024/04/09 09:40:48;;;;;;;6.43;1.60;;;19.30;96.80;;;;;;5417557;26;20011;-78
2024/04/09 09:43:19;;;;;;;5.45;1.90;;;19.30;96.50;;;;;;5417266;26;20076;-79
2024/04/09 09:45:45;;;;;;;4.28;1.67;;;19.30;96.30;;;;;;5417012;26;19999;-73
2024/04/09 09:48:19;;;;;;;5.97;2.08;;;19.40;96.30;;;;;;5417226;26;20011;-78
2024/04/09 09:50:45;;;;;;;6.60;1.65;;;19.50;96.80;;;;;;5417060;26;20010;-78
2024/04/09 09:53:11;;;;;;;8.90;2.03;;;19.50;97.00;;;;;;5417370;26;19999;-78
2024/04/09 09:55:39;;;;;;;5.88;1.80;;;19.50;96.00;;;;;;5417595;26;20032;-78
2024/04/09 09:58:09;;;;;;;3.40;1.30;;;19.60;95.10;;;;;;5417615;26;20014;-78
2024/04/09 10:00:37;;;;;;;4.50;1.85;;;19.70;95.40;;;;;;5416423;26;20449;-70
2024/04/09 10:03:04;;;;;;;5.15;1.75;;;19.70;95.60;;;;;;5416692;26;20009;-69
2024/04/09 10:05:36;;;;;;;4.10;1.63;;;19.80;95.40;;;;;;5417236;26;20012;-68
2024/04/09 10:08:26;;;;;;;7.07;1.67;;;19.80;94.80;;;;;;5417528;26;20417;-69
2024/04/09 10:10:52;;;;;;;8.85;1.85;;;19.80;94.40;;;;;;5417781;26;20039;-69
2024/04/09 10:17:22;;;;;;;4.55;1.73;;;20.00;94.40;;;;;;5284352;27;20651;-68
2024/04/09 10:20:35;;;;;;;6.43;1.75;;;20.00;92.60;;;;;;5208242;27;20348;-69
2024/04/09 10:24:04;;;;;;;7.28;2.40;;;20.00;93.50;;;;;;5199559;27;19999;-69
2024/04/09 10:26:44;;;;;;;4.75;1.60;;;20.10;94.30;;;;;;5206732;27;20019;-69
2024/04/09 10:29:31;;;;;;;12.75;6.28;;;20.20;93.80;;;;;;5207759;27;20023;-68
2024/04/09 10:36:35;;;;;;;10.93;2.40;;;20.30;94.00;;;;;;5172014;27;19999;-68
2024/04/09 10:39:05;;;;;;;8.10;1.83;;;20.30;91.80;;;;;;5174589;27;20016;-69
2024/04/09 10:41:33;;;;;;;5.07;2.40;;;20.40;92.50;;;;;;5293725;26;20000;-69
2024/04/09 10:43:59;;;;;;;4.80;1.80;;;20.40;92.90;;;;;;5380973;26;19997;-69
2024/04/09 10:46:25;;;;;;;9.48;2.40;;;20.40;92.50;;;;;;5380488;26;20788;-69
2024/04/09 10:48:51;;;;;;;5.50;2.00;;;20.50;92.80;;;;;;5380615;26;20015;-68
2024/04/09 10:51:17;;;;;;;4.10;2.13;;;20.60;93.40;;;;;;5380935;26;20094;-69
2024/04/09 10:53:43;;;;;;;5.80;1.95;;;20.60;93.10;;;;;;5380563;26;20000;-68
2024/04/09 10:56:09;;;;;;;5.80;1.95;;;20.70;91.80;;;;;;5380394;26;20019;-69
2024/04/09 10:58:38;;;;;;;4.25;1.60;;;20.80;90.90;;;;;;5380504;26;19996;-69
2024/04/09 11:01:05;;;;;;;7.35;2.97;;;20.90;91.30;;;;;;5379876;26;20012;-71
2024/04/09 11:03:33;;;;;;;7.75;3.10;;;20.90;91.10;;;;;;5379739;26;20078;-68
2024/04/09 11:05:59;;;;;;;5.88;2.00;;;20.90;91.30;;;;;;5380279;26;20000;-70
2024/04/09 11:08:30;;;;;;;5.30;2.00;;;20.90;91.90;;;;;;5380238;26;20008;-69
2024/04/09 11:11:00;;;;;;;5.82;2.30;;;21.00;91.10;;;;;;5380816;26;19997;-71
2024/04/09 11:13:27;;;;;;;3.05;1.90;;;21.00;89.50;;;;;;5381681;26;20314;-68
2024/04/09 11:15:52;;;;;;;5.07;2.30;;;21.00;90.10;;;;;;5383669;26;20305;-68
2024/04/09 11:18:21;;;;;;;5.05;2.28;;;21.10;90.90;;;;;;5383512;26;20015;-69
2024/04/09 11:21:05;;;;;;;4.72;2.10;;;21.10;90.60;;;;;;5383687;26;20008;-69
2024/04/09 11:23:31;;;;;;;5.35;2.10;;;21.10;90.50;;;;;;5383521;26;20023;-69
2024/04/09 11:25:59;;;;;;;4.88;2.25;;;21.20;90.60;;;;;;5385814;26;20000;-69
2024/04/09 11:28:25;;;;;;;4.32;2.13;;;21.20;90.10;;;;;;5419073;26;20017;-73
2024/04/09 11:30:55;;;;;;;3.65;1.92;;;21.20;89.50;;;;;;5418520;26;20560;-69
2024/04/09 11:33:22;;;;;;;4.32;1.90;;;21.30;88.80;;;;;;5418146;26;20007;-69
2024/04/09 11:35:54;;;;;;;6.00;2.20;;;21.40;89.80;;;;;;5418414;26;20084;-68
2024/04/09 11:38:22;;;;;;;5.40;2.55;;;21.40;89.20;;;;;;5418268;26;20471;-69
2024/04/09 11:40:48;;;;;;;4.80;2.13;;;21.40;89.50;;;;;;5419095;26;20007;-69
2024/04/09 11:43:13;;;;;;;4.43;2.00;;;21.40;90.00;;;;;;5419058;26;20019;-69
2024/04/09 11:45:40;;;;;;;5.85;2.60;;;21.50;88.50;;;;;;5419096;26;20435;-72
2024/04/09 11:48:07;;;;;;;12.27;2.22;;;21.50;87.90;;;;;;5418571;26;20051;-69
2024/04/09 11:50:34;;;;;;;5.28;2.13;;;21.50;88.50;;;;;;5418439;26;20672;-71
2024/04/09 11:53:02;;;;;;;4.82;1.95;;;21.60;87.70;;;;;;5418492;26;20011;-68
2024/04/09 12:05:33;;;;;;;6.05;2.42;;;21.70;91.00;;;;;;5311065;27;20079;-72
2024/04/09 12:08:41;;;;;;;8.95;2.50;;;21.80;90.20;;;;;;5310309;26;20002;-70
2024/04/09 12:11:29;;;;;;;6.35;2.22;;;21.80;85.80;;;;;;5310420;27;20014;-70
2024/04/09 12:14:27;;;;;;;4.85;1.63;;;21.80;86.70;;;;;;5310139;27;20002;-68
2024/04/09 12:17:39;;;;;;;11.55;3.83;;;21.80;85.10;;;;;;5275784;27;20429;-70
2024/04/09 12:20:10;;;;;;;3.83;2.00;;;21.80;85.10;;;;;;5275177;27;20010;-70
2024/04/09 12:22:36;;;;;;;8.07;3.03;;;21.80;85.80;;;;;;5275947;27;20002;-69
2024/04/09 12:25:04;;;;;;;7.47;2.10;;;21.90;85.30;;;;;;5275387;27;20006;-73
2024/04/09 12:27:30;;;;;;;7.38;2.20;;;21.90;85.90;;;;;;5395078;26;20008;-69
2024/04/09 12:29:56;;;;;;;5.78;1.77;;;21.90;85.20;;;;;;5418053;26;19995;-70
2024/04/09 12:32:22;;;;;;;9.05;2.92;;;22.00;83.80;;;;;;5418234;26;19995;-71
2024/04/09 12:34:50;;;;;;;7.10;2.70;;;22.00;85.90;;;;;;5418234;26;20046;-68
2024/04/09 12:37:16;;;;;;;5.53;2.80;;;22.00;84.70;;;;;;5418167;26;20000;-69
2024/04/09 12:39:42;;;;;;;3.90;2.00;;;22.00;86.70;;;;;;5417767;26;19999;-69
2024/04/09 12:42:08;;;;;;;5.00;2.40;;;22.10;87.20;;;;;;5417461;26;20451;-70
2024/04/09 12:44:35;;;;;;;4.32;2.17;;;22.10;85.20;;;;;;5417286;26;20355;-68
2024/04/09 12:47:02;;;;;;;7.43;2.28;;;22.20;86.10;;;;;;5386406;26;20448;-70
2024/04/09 12:49:29;;;;;;;5.38;2.67;;;22.20;86.20;;;;;;5417528;26;20455;-69
2024/04/09 12:51:55;;;;;;;5.03;2.28;;;22.20;85.90;;;;;;5416930;26;20066;-71
2024/04/09 12:54:22;;;;;;;7.03;2.55;;;22.30;85.50;;;;;;5417129;26;20028;-68
2024/04/09 12:56:48;;;;;;;6.15;2.33;;;22.30;85.70;;;;;;5417693;26;20316;-70
2024/04/09 12:59:17;;;;;;;9.07;2.33;;;22.30;83.80;;;;;;5417874;26;19995;-70
2024/04/09 13:01:43;;;;;;;4.75;2.15;;;22.40;83.20;;;;;;5417115;26;20544;-79
2024/04/09 13:04:10;;;;;;;5.40;2.40;;;22.40;82.80;;;;;;5417007;26;20012;-75
2024/04/09 13:06:36;;;;;;;4.50;1.80;;;22.40;82.60;;;;;;5416741;26;20304;-80
2024/04/09 13:09:01;;;;;;;8.95;2.58;;;22.40;83.70;;;;;;5414424;26;19999;-75
2024/04/09 13:11:27;;;;;;;7.32;2.38;;;22.40;84.40;;;;;;5415936;26;20017;-78
2024/04/09 13:13:54;;;;;;;6.85;2.10;;;22.40;82.50;;;;;;5417268;26;19995;-77
2024/04/09 13:16:20;;;;;;;5.68;2.10;;;22.50;83.70;;;;;;5417413;26;20007;-76
2024/04/09 13:18:45;;;;;;;4.93;2.28;;;22.40;86.20;;;;;;5416073;26;20015;-76
2024/04/09 13:21:11;;;;;;;4.80;2.30;;;22.40;84.60;;;;;;5416552;26;20080;-68
2024/04/09 13:23:37;;;;;;;11.13;2.75;;;22.50;85.40;;;;;;5417317;26;20351;-68
2024/04/09 13:26:03;;;;;;;8.77;2.88;;;22.50;84.80;;;;;;5417632;26;20000;-68
2024/04/09 13:28:29;;;;;;;4.10;2.42;;;22.50;83.00;;;;;;5417784;26;20003;-68
2024/04/09 13:30:55;;;;;;;10.35;2.55;;;22.50;82.60;;;;;;5417748;26;20023;-68
2024/04/09 13:33:27;;;;;;;5.80;2.30;;;22.50;84.60;;;;;;5418073;26;20011;-68
2024/04/09 13:39:59;;;;;;;40.10;3.38;;;22.50;86.40;;;;;;5241994;27;20467;-68
2024/04/09 13:43:07;;;;;;;6.07;2.60;;;22.50;86.00;;;;;;5217449;27;20009;-68
2024/04/09 13:53:13;;;;;;;9.20;2.50;;;22.50;86.00;;;;;;5063377;28;20014;-68
2024/04/09 13:56:06;;;;;;;8.93;2.15;;;22.40;85.40;;;;;;5072879;28;20013;-67
2024/04/09 13:59:28;;;;;;;6.10;2.35;;;22.50;86.20;;;;;;4956365;28;20005;-68
2024/04/09 14:01:54;;;;;;;7.32;2.65;;;22.50;84.00;;;;;;4915441;28;20001;-68